createdAt,value
2023-03-07T00:00:36.101Z,94369.13
2023-03-07T00:03:08.103Z,94371.75
2023-03-07T00:05:39.812Z,94374.13
2023-03-07T00:08:12.118Z,94369.28
2023-03-07T00:10:43.649Z,94368.94
2023-03-07T00:13:15.100Z,94371.28
2023-03-07T00:15:46.619Z,94377.47
2023-03-07T00:18:18.063Z,94377.88
2023-03-07T00:21:01.132Z,94365.72
2023-03-07T00:23:34.304Z,94358.59
2023-03-07T00:26:18.294Z,94370.41
2023-03-07T00:28:51.698Z,94350.44
2023-03-07T00:31:24.432Z,94358.75
2023-03-07T00:33:55.976Z,94353.50
2023-03-07T00:36:27.930Z,94355.78
2023-03-07T00:38:59.428Z,94341.19
2023-03-07T00:41:30.890Z,94348.75
2023-03-07T00:44:02.627Z,94344.66
2023-03-07T00:46:34.215Z,94346.69
2023-03-07T00:49:05.686Z,94348.91
2023-03-07T00:51:37.178Z,94340.59
2023-03-07T00:54:08.795Z,94337.97
2023-03-07T00:56:40.738Z,94329.47
2023-03-07T00:59:12.600Z,94330.75
2023-03-07T01:01:44.795Z,94327.53
2023-03-07T01:04:16.341Z,94328.41
2023-03-07T01:06:47.894Z,94324.06
2023-03-07T01:09:19.358Z,94332.81
2023-03-07T01:11:50.886Z,94329.84
2023-03-07T01:14:22.582Z,94325.75
2023-03-07T01:16:54.110Z,94312.25
2023-03-07T01:19:25.756Z,94319.81
2023-03-07T01:21:57.311Z,94315.31
2023-03-07T01:24:28.814Z,94313.84
2023-03-07T01:27:00.301Z,94312.25
2023-03-07T01:29:31.828Z,94310.03
2023-03-07T01:32:03.556Z,94308.19
2023-03-07T01:34:35.089Z,94301.31
2023-03-07T01:37:06.621Z,94298.34
2023-03-07T01:39:38.076Z,94301.38
2023-03-07T01:42:10.642Z,94296.47
2023-03-07T01:45:02.605Z,94308.47
2023-03-07T01:47:34.830Z,94307.00
2023-03-07T01:50:11.746Z,94302.03
2023-03-07T01:52:49.602Z,94300.16
2023-03-07T01:55:30.814Z,94288.59
2023-03-07T01:58:20.596Z,94298.34
2023-03-07T02:00:52.124Z,94286.06
2023-03-07T02:03:35.140Z,94280.69
2023-03-07T02:06:10.512Z,94284.44
2023-03-07T02:08:44.838Z,94275.19
2023-03-07T02:11:17.023Z,94276.88
2023-03-07T02:13:48.532Z,94274.34
2023-03-07T02:16:20.431Z,94281.22
2023-03-07T02:18:51.975Z,94276.28
2023-03-07T02:21:23.491Z,94270.94
2023-03-07T02:24:11.941Z,94278.81
2023-03-07T02:26:45.426Z,94279.69
2023-03-07T02:29:16.980Z,94275.94
2023-03-07T02:31:48.481Z,94274.16
2023-03-07T02:34:28.461Z,94273.22
2023-03-07T02:37:27.295Z,94273.50
2023-03-07T02:40:05.281Z,94273.22
2023-03-07T02:42:41.166Z,94278.16
2023-03-07T02:45:17.879Z,94270.53
2023-03-07T02:47:49.481Z,94273.56
2023-03-07T02:50:21.047Z,94275.72
2023-03-07T02:52:52.525Z,94273.50
2023-03-07T02:55:24.087Z,94275.03
2023-03-07T02:57:55.741Z,94277.31
2023-03-07T03:00:27.363Z,94281.75
2023-03-07T03:02:58.921Z,94281.56
2023-03-07T03:05:30.440Z,94273.75
2023-03-07T03:08:01.982Z,94266.97
2023-03-07T03:10:33.462Z,94261.69
2023-03-07T03:13:05.399Z,94261.44
2023-03-07T03:15:36.936Z,94255.09
2023-03-07T03:18:08.494Z,94261.19
2023-03-07T03:20:41.060Z,94266.78
2023-03-07T03:23:12.607Z,94262.56
2023-03-07T03:25:44.535Z,94265.59
2023-03-07T03:28:16.210Z,94262.28
2023-03-07T03:31:00.392Z,94252.53
2023-03-07T03:33:32.078Z,94255.44
2023-03-07T03:36:09.676Z,94247.94
2023-03-07T03:38:41.475Z,94246.69
2023-03-07T03:41:17.559Z,94250.06
2023-03-07T03:43:49.186Z,94247.09
2023-03-07T03:46:20.876Z,94243.78
2023-03-07T03:48:54.137Z,94235.91
2023-03-07T03:51:27.219Z,94250.94
2023-03-07T03:53:58.861Z,94241.84
2023-03-07T03:56:30.371Z,94243.22
2023-03-07T03:59:01.827Z,94238.13
2023-03-07T04:01:33.970Z,94240.00
2023-03-07T04:04:05.604Z,94235.91
2023-03-07T04:06:37.205Z,94226.50
2023-03-07T04:09:09.755Z,94233.22
2023-03-07T04:11:41.287Z,94231.19
2023-03-07T04:14:12.807Z,94224.41
2023-03-07T04:16:44.450Z,94222.44
2023-03-07T04:19:16.029Z,94222.69
2023-03-07T04:21:47.802Z,94223.53
2023-03-07T04:24:19.424Z,94228.03
2023-03-07T04:26:50.941Z,94223.47
2023-03-07T04:29:22.520Z,94222.69
2023-03-07T04:31:54.094Z,94228.91
2023-03-07T04:34:25.702Z,94220.84
2023-03-07T04:36:57.209Z,94223.19
2023-03-07T04:39:28.676Z,94218.38
2023-03-07T04:42:00.246Z,94223.53
2023-03-07T04:44:31.860Z,94217.94
2023-03-07T04:47:03.511Z,94222.59
2023-03-07T04:49:35.161Z,94203.03
2023-03-07T04:52:06.810Z,94211.25
2023-03-07T04:54:38.774Z,94215.34
2023-03-07T04:57:10.506Z,94212.19
2023-03-07T04:59:42.015Z,94203.88
2023-03-07T05:02:13.976Z,94215.06
2023-03-07T05:04:45.832Z,94216.94
2023-03-07T05:07:17.584Z,94225.09
2023-03-07T05:09:49.371Z,94222.34
2023-03-07T05:12:21.047Z,94224.16
2023-03-07T05:14:52.548Z,94221.75
2023-03-07T05:17:24.036Z,94222.78
2023-03-07T05:19:55.538Z,94228.03
2023-03-07T05:22:27.597Z,94220.50
2023-03-07T05:24:59.063Z,94226.09
2023-03-07T05:27:30.587Z,94224.47
2023-03-07T05:30:02.295Z,94214.44
2023-03-07T05:32:34.019Z,94219.38
2023-03-07T05:35:06.418Z,94214.09
2023-03-07T05:37:37.864Z,94224.53
2023-03-07T05:40:10.610Z,94222.00
2023-03-07T05:42:42.372Z,94224.69
2023-03-07T05:45:13.957Z,94217.25
2023-03-07T05:47:45.542Z,94221.03
2023-03-07T05:50:19.027Z,94218.84
2023-03-07T05:52:50.618Z,94214.44
2023-03-07T05:55:22.249Z,94211.41
2023-03-07T05:57:53.784Z,94207.06
2023-03-07T06:00:25.585Z,94215.84
2023-03-07T06:02:57.259Z,94212.66
2023-03-07T06:05:28.901Z,94215.38
2023-03-07T06:08:00.527Z,94219.09
2023-03-07T06:10:32.612Z,94219.94
2023-03-07T06:13:04.195Z,94214.50
2023-03-07T06:15:35.680Z,94212.75
2023-03-07T06:18:07.345Z,94213.84
2023-03-07T06:20:38.816Z,94213.16
2023-03-07T06:23:12.967Z,94210.63
2023-03-07T06:25:44.785Z,94216.75
2023-03-07T06:28:16.386Z,94213.59
2023-03-07T06:30:48.261Z,94212.69
2023-03-07T06:33:20.116Z,94217.09
2023-03-07T06:35:51.831Z,94209.47
2023-03-07T06:38:23.989Z,94219.47
2023-03-07T06:40:56.614Z,94212.53
2023-03-07T06:43:28.139Z,94220.91
2023-03-07T06:46:00.003Z,94210.84
2023-03-07T06:48:31.730Z,94213.03
2023-03-07T06:51:08.116Z,94213.78
2023-03-07T06:53:41.143Z,94216.59
2023-03-07T06:56:12.738Z,94220.06
2023-03-07T06:58:44.281Z,94216.16
2023-03-07T07:01:20.906Z,94219.13
2023-03-07T07:03:52.443Z,94218.34
2023-03-07T07:06:24.064Z,94223.16
2023-03-07T07:08:57.277Z,94216.31
2023-03-07T07:11:28.762Z,94220.13
2023-03-07T07:14:00.247Z,94212.66
2023-03-07T07:16:33.680Z,94207.59
2023-03-07T07:19:05.354Z,94207.44
2023-03-07T07:21:36.827Z,94215.13
2023-03-07T07:24:11.967Z,94212.72
2023-03-07T07:26:43.643Z,94202.28
2023-03-07T07:29:15.942Z,94200.47
2023-03-07T07:31:47.622Z,94201.75
2023-03-07T07:34:19.225Z,94193.84
2023-03-07T07:36:50.821Z,94193.16
2023-03-07T07:39:23.400Z,94196.81
2023-03-07T07:41:54.913Z,94188.84
2023-03-07T07:44:30.296Z,94184.69
2023-03-07T07:47:01.858Z,94186.97
2023-03-07T07:49:33.557Z,94185.53
2023-03-07T07:52:05.237Z,94184.13
2023-03-07T07:54:36.787Z,94178.34
2023-03-07T07:57:08.281Z,94193.72
2023-03-07T07:59:39.808Z,94187.47
2023-03-07T08:02:13.826Z,94190.41
2023-03-07T08:04:47.390Z,94184.78
2023-03-07T08:07:18.918Z,94180.44
2023-03-07T08:09:50.678Z,94191.00
2023-03-07T08:12:22.197Z,94197.19
2023-03-07T08:14:53.673Z,94185.44
2023-03-07T08:17:25.224Z,94178.38
2023-03-07T08:20:01.700Z,94187.53
2023-03-07T08:22:33.433Z,94193.94
2023-03-07T08:25:06.651Z,94178.03
2023-03-07T08:27:38.208Z,94180.31
2023-03-07T08:30:10.395Z,94166.16
2023-03-07T08:32:41.954Z,94169.19
2023-03-07T08:35:13.543Z,94172.72
2023-03-07T08:37:45.640Z,94162.75
2023-03-07T08:40:17.227Z,94176.81
2023-03-07T08:42:49.965Z,94165.38
2023-03-07T08:45:23.072Z,94167.75
2023-03-07T08:47:56.842Z,94161.59
2023-03-07T08:50:29.043Z,94163.50
2023-03-07T08:53:00.687Z,94169.59
2023-03-07T08:55:35.481Z,94170.13
2023-03-07T08:58:07.525Z,94156.97
2023-03-07T09:00:39.576Z,94171.69
2023-03-07T09:03:11.356Z,94165.59
2023-03-07T09:05:43.811Z,94155.59
2023-03-07T09:08:15.768Z,94161.19
2023-03-07T09:10:48.139Z,94161.75
2023-03-07T09:13:19.550Z,94160.72
2023-03-07T09:15:51.252Z,94159.63
2023-03-07T09:18:23.295Z,94151.69
2023-03-07T09:20:54.855Z,94155.19
2023-03-07T09:23:26.770Z,94156.44
2023-03-07T09:26:03.272Z,94155.69
2023-03-07T09:28:34.785Z,94156.19
2023-03-07T09:31:10.958Z,94158.94
2023-03-07T09:33:44.711Z,94144.25
2023-03-07T09:36:19.642Z,94138.38
2023-03-07T09:38:51.469Z,94140.75
2023-03-07T09:41:41.359Z,94131.50
2023-03-07T09:44:23.338Z,94139.53
2023-03-07T09:47:13.340Z,94125.97
2023-03-07T09:49:47.233Z,94132.25
2023-03-07T09:52:28.657Z,94125.97
2023-03-07T09:55:03.461Z,94126.03
2023-03-07T09:57:57.823Z,94123.63
2023-03-07T10:00:36.724Z,94116.59
2023-03-07T10:03:44.381Z,94101.47
2023-03-07T10:06:30.601Z,94096.19
2023-03-07T10:09:02.718Z,94090.09
2023-03-07T10:12:29.788Z,94098.94
2023-03-07T10:15:29.000Z,94085.84
2023-03-07T10:18:26.503Z,94067.03
2023-03-07T10:21:13.006Z,94079.50
2023-03-07T10:23:51.156Z,94076.09
2023-03-07T10:26:42.934Z,94069.00
2023-03-07T10:29:19.519Z,94057.34
2023-03-07T10:32:15.669Z,94066.78
2023-03-07T10:34:57.100Z,94058.81
2023-03-07T10:37:50.477Z,94060.28
2023-03-07T10:40:27.267Z,94052.78
2023-03-07T10:43:00.100Z,94058.88
2023-03-07T10:45:33.418Z,94037.31
2023-03-07T10:48:15.541Z,94049.00
2023-03-07T10:51:01.362Z,94036.56
2023-03-07T10:53:36.435Z,94029.78
2023-03-07T10:56:18.151Z,94028.22
2023-03-07T10:59:09.740Z,94027.09
2023-03-07T11:01:54.551Z,94014.25
2023-03-07T11:04:30.279Z,94014.28
2023-03-07T11:07:02.708Z,94005.59
2023-03-07T11:09:34.989Z,94005.22
2023-03-07T11:12:06.476Z,93994.59
2023-03-07T11:15:00.330Z,93990.06
2023-03-07T11:17:46.546Z,93991.97
2023-03-07T11:20:25.789Z,93990.06
2023-03-07T11:23:12.660Z,93975.69
2023-03-07T11:25:44.440Z,93976.81
2023-03-07T11:28:31.372Z,93967.72
2023-03-07T11:31:21.602Z,93969.25
2023-03-07T11:34:06.524Z,93955.19
2023-03-07T11:36:40.712Z,93955.59
2023-03-07T11:39:19.064Z,93955.19
2023-03-07T11:41:57.979Z,93962.00
2023-03-07T11:44:48.201Z,93948.69
2023-03-07T11:47:50.825Z,93953.16
2023-03-07T11:50:28.969Z,93958.13
2023-03-07T11:53:22.433Z,93947.47
2023-03-07T11:56:15.879Z,93943.72
2023-03-07T11:59:09.356Z,93937.34
2023-03-07T12:01:47.248Z,93929.69
2023-03-07T12:04:24.674Z,93924.69
2023-03-07T12:07:05.164Z,93918.38
2023-03-07T12:09:52.352Z,93915.69
2023-03-07T12:12:35.944Z,93913.88
2023-03-07T12:15:13.232Z,93898.34
2023-03-07T12:18:21.908Z,93890.34
2023-03-07T12:21:08.601Z,93902.41
2023-03-07T12:23:49.245Z,93896.06
2023-03-07T12:26:26.172Z,93888.00
2023-03-07T12:29:31.948Z,93885.72
2023-03-07T12:32:16.533Z,93875.22
2023-03-07T12:34:56.072Z,93867.19
2023-03-07T12:37:35.897Z,93877.63
2023-03-07T12:40:19.694Z,93888.50
2023-03-07T12:42:51.150Z,93885.13
2023-03-07T12:45:33.589Z,93887.38
2023-03-07T12:48:15.428Z,93884.88
2023-03-07T12:51:04.710Z,93872.25
2023-03-07T12:53:48.188Z,93875.50
2023-03-07T12:57:03.989Z,93881.31
2023-03-07T12:59:39.921Z,93868.56
2023-03-07T13:02:16.415Z,93863.84
2023-03-07T13:04:47.888Z,93861.78
2023-03-07T13:07:26.660Z,93864.63
2023-03-07T13:10:00.576Z,93855.66
2023-03-07T13:12:38.765Z,93849.72
2023-03-07T13:15:19.029Z,93850.63
2023-03-07T13:17:50.476Z,93852.69
2023-03-07T13:20:27.711Z,93847.41
2023-03-07T13:23:12.204Z,93845.06
2023-03-07T13:25:48.077Z,93834.81
2023-03-07T13:28:36.059Z,93835.47
2023-03-07T13:31:15.772Z,93831.78
2023-03-07T13:33:48.127Z,93833.69
2023-03-07T13:36:35.419Z,93830.06
2023-03-07T13:39:35.617Z,93821.69
2023-03-07T13:42:46.243Z,93824.91
2023-03-07T13:45:39.674Z,93801.16
2023-03-07T13:48:15.484Z,93797.00
2023-03-07T13:50:53.564Z,93800.81
2023-03-07T13:53:28.122Z,93796.56
2023-03-07T13:56:15.112Z,93808.06
2023-03-07T13:59:10.603Z,93806.81
2023-03-07T14:02:12.817Z,93804.16
2023-03-07T14:04:51.841Z,93797.94
2023-03-07T14:07:36.943Z,93789.19
2023-03-07T14:10:26.519Z,93791.72
2023-03-07T14:13:13.593Z,93788.16
2023-03-07T14:16:03.464Z,93775.72
2023-03-07T14:19:00.811Z,93789.94
2023-03-07T14:21:49.896Z,93788.38
2023-03-07T14:24:52.275Z,93787.09
2023-03-07T14:27:24.895Z,93785.22
2023-03-07T14:29:57.184Z,93785.28
2023-03-07T14:32:31.302Z,93778.59
2023-03-07T14:35:02.898Z,93787.28
2023-03-07T14:37:34.436Z,93787.91
2023-03-07T14:40:13.134Z,93788.47
2023-03-07T14:43:14.853Z,93786.41
2023-03-07T14:45:58.215Z,93788.03
2023-03-07T14:48:41.659Z,93795.16
2023-03-07T14:51:17.450Z,93790.59
2023-03-07T14:53:50.059Z,93790.56
2023-03-07T14:56:28.341Z,93792.97
2023-03-07T14:59:01.907Z,93780.38
2023-03-07T15:01:37.018Z,93776.22
2023-03-07T15:04:30.071Z,93785.63
2023-03-07T15:07:04.640Z,93769.84
2023-03-07T15:09:36.246Z,93776.63
2023-03-07T15:12:23.103Z,93790.31
2023-03-07T15:14:59.974Z,93792.28
2023-03-07T15:17:44.701Z,93793.94
2023-03-07T15:20:26.089Z,93801.44
2023-03-07T15:23:07.872Z,93798.31
2023-03-07T15:25:40.757Z,93798.66
2023-03-07T15:28:23.192Z,93792.50
2023-03-07T15:30:55.811Z,93792.91
2023-03-07T15:33:28.351Z,93792.22
2023-03-07T15:36:17.994Z,93786.09
2023-03-07T15:38:51.198Z,93794.09
2023-03-07T15:41:29.824Z,93796.00
2023-03-07T15:44:19.440Z,93796.16
2023-03-07T15:46:54.502Z,93791.69
2023-03-07T15:49:40.671Z,93795.13
2023-03-07T15:52:24.681Z,93802.09
2023-03-07T15:55:00.085Z,93801.88
2023-03-07T15:57:37.038Z,93809.25
2023-03-07T16:00:16.739Z,93824.22
2023-03-07T16:02:50.397Z,93823.69
2023-03-07T16:05:22.959Z,93826.44
2023-03-07T16:07:57.079Z,93830.00
2023-03-07T16:10:31.512Z,93830.84
2023-03-07T16:13:05.711Z,93838.09
2023-03-07T16:15:37.273Z,93843.13
2023-03-07T16:18:08.939Z,93837.78
2023-03-07T16:20:40.453Z,93847.66
2023-03-07T16:23:14.506Z,93848.84
2023-03-07T16:25:46.551Z,93849.19
2023-03-07T16:28:18.812Z,93849.59
2023-03-07T16:30:50.345Z,93845.41
2023-03-07T16:33:22.035Z,93845.03
2023-03-07T16:35:53.638Z,93856.06
2023-03-07T16:38:25.182Z,93846.97
2023-03-07T16:40:57.670Z,93850.00
2023-03-07T16:43:37.908Z,93854.50
2023-03-07T16:46:16.328Z,93849.59
2023-03-07T16:48:48.014Z,93848.81
2023-03-07T16:51:25.683Z,93852.19
2023-03-07T16:53:59.785Z,93849.53
2023-03-07T16:56:38.583Z,93852.16
2023-03-07T16:59:20.627Z,93852.91
2023-03-07T17:01:54.688Z,93853.69
2023-03-07T17:04:26.182Z,93855.94
2023-03-07T17:07:04.597Z,93852.84
2023-03-07T17:09:36.622Z,93857.34
2023-03-07T17:12:08.568Z,93867.94
2023-03-07T17:14:40.613Z,93863.34
2023-03-07T17:17:22.137Z,93863.69
2023-03-07T17:19:53.614Z,93879.47
2023-03-07T17:22:25.222Z,93871.53
2023-03-07T17:24:56.714Z,93894.53
2023-03-07T17:27:28.427Z,93889.22
2023-03-07T17:30:00.029Z,93877.47
2023-03-07T17:32:31.551Z,93888.00
2023-03-07T17:35:03.499Z,93900.06
2023-03-07T17:37:35.527Z,93907.25
2023-03-07T17:40:10.933Z,93912.56
2023-03-07T17:42:43.716Z,93920.13
2023-03-07T17:45:15.242Z,93915.22
2023-03-07T17:47:54.028Z,93928.00
2023-03-07T17:50:25.947Z,93932.16
2023-03-07T17:52:58.093Z,93944.22
2023-03-07T17:55:30.586Z,93953.63
2023-03-07T17:58:02.153Z,93943.78
2023-03-07T18:00:34.054Z,93950.13
2023-03-07T18:03:07.454Z,93953.88
2023-03-07T18:05:40.110Z,93960.69
2023-03-07T18:08:11.961Z,93964.84
2023-03-07T18:10:43.628Z,93968.97
2023-03-07T18:13:15.224Z,93974.25
2023-03-07T18:15:48.085Z,93967.47
2023-03-07T18:18:19.643Z,93973.09
2023-03-07T18:21:01.880Z,93980.53
2023-03-07T18:23:35.342Z,93976.38
2023-03-07T18:26:13.758Z,93970.75
2023-03-07T18:28:47.476Z,93982.78
2023-03-07T18:31:25.337Z,93982.78
2023-03-07T18:33:57.071Z,93982.78
2023-03-07T18:36:28.669Z,93981.56
2023-03-07T18:39:01.253Z,93981.94
2023-03-07T18:41:33.212Z,93979.97
2023-03-07T18:44:05.114Z,93982.69
2023-03-07T18:46:38.499Z,93977.34
2023-03-07T18:49:10.150Z,93980.75
2023-03-07T18:51:44.089Z,93986.38
2023-03-07T18:54:15.925Z,93987.47
2023-03-07T18:56:48.194Z,93988.56
2023-03-07T18:59:23.633Z,93996.75
2023-03-07T19:01:55.826Z,93995.97
2023-03-07T19:04:27.530Z,93998.56
2023-03-07T19:07:00.580Z,93998.56
2023-03-07T19:09:32.181Z,93998.09
2023-03-07T19:12:05.766Z,93998.88
2023-03-07T19:14:37.967Z,94019.19
2023-03-07T19:17:09.475Z,94010.00
2023-03-07T19:19:41.218Z,94013.78
2023-03-07T19:22:12.774Z,94020.88
2023-03-07T19:24:44.768Z,94025.81
2023-03-07T19:27:17.322Z,94022.72
2023-03-07T19:29:48.889Z,94021.88
2023-03-07T19:32:20.768Z,94014.81
2023-03-07T19:34:52.357Z,94022.31
2023-03-07T19:37:24.046Z,94016.28
2023-03-07T19:39:55.709Z,94020.75
2023-03-07T19:42:27.431Z,94032.31
2023-03-07T19:44:58.983Z,94043.53
2023-03-07T19:47:30.700Z,94044.28
2023-03-07T19:50:03.392Z,94046.56
2023-03-07T19:52:34.896Z,94050.09
2023-03-07T19:55:07.045Z,94055.03
2023-03-07T19:57:41.395Z,94058.88
2023-03-07T20:00:13.815Z,94061.63
2023-03-07T20:02:45.240Z,94065.88
2023-03-07T20:05:16.916Z,94068.91
2023-03-07T20:07:48.921Z,94059.16
2023-03-07T20:10:21.551Z,94057.25
2023-03-07T20:12:54.590Z,94067.47
2023-03-07T20:15:27.683Z,94065.25
2023-03-07T20:18:01.644Z,94063.00
2023-03-07T20:20:36.258Z,94067.25
2023-03-07T20:23:07.798Z,94072.91
2023-03-07T20:25:39.439Z,94068.41
2023-03-07T20:28:12.582Z,94074.78
2023-03-07T20:30:44.132Z,94072.50
2023-03-07T20:33:15.815Z,94073.16
2023-03-07T20:35:47.551Z,94076.47
2023-03-07T20:38:19.089Z,94078.72
2023-03-07T20:41:00.294Z,94083.13
2023-03-07T20:43:33.593Z,94089.00
2023-03-07T20:46:12.816Z,94092.81
2023-03-07T20:48:45.212Z,94103.00
2023-03-07T20:51:20.402Z,94095.69
2023-03-07T20:53:53.326Z,94098.69
2023-03-07T20:56:27.044Z,94099.44
2023-03-07T20:59:02.923Z,94111.88
2023-03-07T21:01:36.398Z,94113.88
2023-03-07T21:04:12.766Z,94112.25
2023-03-07T21:06:45.307Z,94108.13
2023-03-07T21:09:17.932Z,94104.31
2023-03-07T21:11:50.166Z,94102.59
2023-03-07T21:14:21.987Z,94096.16
2023-03-07T21:16:53.534Z,94105.94
2023-03-07T21:19:25.306Z,94096.97
2023-03-07T21:21:59.781Z,94100.47
2023-03-07T21:24:31.669Z,94104.97
2023-03-07T21:27:03.240Z,94101.19
2023-03-07T21:29:34.823Z,94105.97
2023-03-07T21:32:06.445Z,94114.38
2023-03-07T21:34:38.392Z,94111.00
2023-03-07T21:37:10.371Z,94099.94
2023-03-07T21:39:42.106Z,94117.28
2023-03-07T21:42:13.718Z,94127.13
2023-03-07T21:44:46.285Z,94125.31
2023-03-07T21:47:20.374Z,94132.09
2023-03-07T21:49:52.892Z,94129.88
2023-03-07T21:52:24.442Z,94128.81
2023-03-07T21:54:57.134Z,94137.53
2023-03-07T21:57:29.789Z,94142.06
2023-03-07T22:00:01.294Z,94139.53
2023-03-07T22:02:32.835Z,94128.97
2023-03-07T22:05:05.124Z,94141.03
2023-03-07T22:07:36.913Z,94135.88
2023-03-07T22:10:09.297Z,94136.00
2023-03-07T22:12:40.614Z,94137.84
2023-03-07T22:15:12.150Z,94138.97
2023-03-07T22:17:46.604Z,94140.78
2023-03-07T22:20:18.293Z,94140.00
2023-03-07T22:22:49.905Z,94146.38
2023-03-07T22:25:21.473Z,94151.69
2023-03-07T22:27:53.342Z,94149.56
2023-03-07T22:30:24.847Z,94157.34
2023-03-07T22:32:56.355Z,94149.97
2023-03-07T22:35:28.288Z,94156.63
2023-03-07T22:37:59.797Z,94157.19
2023-03-07T22:40:32.587Z,94157.22
2023-03-07T22:43:04.196Z,94159.88
2023-03-07T22:45:35.758Z,94153.47
2023-03-07T22:48:07.272Z,94167.41
2023-03-07T22:50:39.312Z,94160.91
2023-03-07T22:53:10.894Z,94161.38
2023-03-07T22:55:43.445Z,94158.38
2023-03-07T22:58:15.276Z,94154.53
2023-03-07T23:00:48.268Z,94155.63
2023-03-07T23:03:20.101Z,94165.03
2023-03-07T23:05:51.801Z,94162.03
2023-03-07T23:08:23.363Z,94160.22
2023-03-07T23:11:03.671Z,94158.00
2023-03-07T23:13:35.411Z,94162.50
2023-03-07T23:16:16.775Z,94171.06
2023-03-07T23:18:50.778Z,94164.66
2023-03-07T23:21:26.338Z,94183.09
2023-03-07T23:23:59.065Z,94189.13
2023-03-07T23:26:36.168Z,94189.53
2023-03-07T23:29:09.733Z,94200.38
2023-03-07T23:31:42.923Z,94204.97
2023-03-07T23:34:18.001Z,94197.25
2023-03-07T23:36:49.781Z,94199.94
2023-03-07T23:39:21.823Z,94199.16
2023-03-07T23:41:53.768Z,94202.19
2023-03-07T23:44:25.352Z,94201.44
2023-03-07T23:46:56.849Z,94204.69
2023-03-07T23:49:28.341Z,94211.16
2023-03-07T23:51:59.791Z,94210.81
2023-03-07T23:54:31.571Z,94209.91
2023-03-07T23:57:03.233Z,94204.69
2023-03-07T23:59:34.754Z,94215.69
